Terminal Aerodrome Forecast
Issued by NWS

Home | Current Version | Previous Version | Text Only | Print | Product List | Glossary On
Versions: 1 2 3 4 5 6 7 8 9 10 11 12 13 14 15
000
FTUS43 KIND 270500
TAFLAF
TAF
KLAF 270525Z 2706/2806 33007KT P6SM SKC
     FM271600 35013KT P6SM SCT040
     FM280200 36007KT P6SM FEW250
      AMD LTD TO CLD VIS AND WIND TIL 271300=

USA.gov is the U.S. government's official web portal to all federal, state and local government web resources and services.